Time;durP1;ratioP1;P1;durP2;ratioP2;P2;SDS_P1;SDS_P2;PMS_P1;PMS_P2;Temp;Humidity;BMP_temperature;BMP_pressure;BME280_temperature;BME280_humidity;BME280_pressure;Samples;Min_cycle;Max_cycle;Signal;HPM_P1;HPM_P2
2021/07/23 00:01:00;;;;;;;5.33;1.60;;;;;;;15.72;66.13;100066.47;1795565;78;20940;-79
2021/07/23 00:03:27;;;;;;;5.00;1.70;;;;;;;15.72;66.40;100063.80;1776762;79;21032;-79
2021/07/23 00:05:54;;;;;;;8.00;1.60;;;;;;;15.71;66.67;100065.63;1776023;80;21360;-79
2021/07/23 00:08:20;;;;;;;3.22;1.60;;;;;;;15.69;66.69;100067.63;1785868;79;22774;-79
2021/07/23 00:10:47;;;;;;;3.17;1.75;;;;;;;15.68;66.76;100069.12;1796755;79;21016;-79
2021/07/23 00:13:13;;;;;;;4.22;1.70;;;;;;;15.65;66.90;100070.80;1797501;79;21039;-79
2021/07/23 00:15:41;;;;;;;4.35;1.55;;;;;;;15.60;66.74;100069.06;1807409;79;20938;-77
2021/07/23 00:18:08;;;;;;;1.95;1.50;;;;;;;15.56;66.67;100073.06;1804127;79;20929;-77
2021/07/23 00:20:36;;;;;;;4.45;1.62;;;;;;;15.54;66.86;100076.35;1806573;79;21783;-78
2021/07/23 00:23:05;;;;;;;3.02;1.80;;;;;;;15.49;66.90;100073.36;1807672;79;20980;-78
2021/07/23 00:25:31;;;;;;;5.35;1.80;;;;;;;15.45;66.51;100071.53;1807657;79;20969;-78
2021/07/23 00:27:58;;;;;;;3.87;1.50;;;;;;;15.44;66.28;100069.36;1801163;79;21054;-78
2021/07/23 00:30:26;;;;;;;5.65;1.77;;;;;;;15.48;66.20;100074.36;1780380;79;21474;-77
2021/07/23 00:32:53;;;;;;;4.60;1.87;;;;;;;15.46;66.11;100070.03;1791413;79;22456;-78
2021/07/23 00:35:20;;;;;;;7.42;1.90;;;;;;;15.46;66.18;100074.52;1787715;78;20947;-78
2021/07/23 00:37:48;;;;;;;5.17;1.80;;;;;;;15.42;66.08;100072.66;1809152;78;20929;-78
2021/07/23 00:40:15;;;;;;;3.35;1.90;;;;;;;15.42;66.03;100078.48;1816211;77;20996;-78
2021/07/23 00:42:42;;;;;;;3.30;1.70;;;;;;;15.42;65.94;100074.48;1802511;78;20987;-77
2021/07/23 00:45:10;;;;;;;2.55;1.52;;;;;;;15.40;66.14;100081.30;1818846;78;22176;-80
2021/07/23 00:47:38;;;;;;;4.90;1.87;;;;;;;15.38;66.14;100077.14;1818655;78;20972;-80
2021/07/23 00:50:05;;;;;;;6.65;1.60;;;;;;;15.37;66.38;100075.48;1818112;78;20984;-80
2021/07/23 00:52:32;;;;;;;6.62;1.60;;;;;;;15.34;66.13;100075.28;1793120;78;21433;-80
2021/07/23 00:55:00;;;;;;;7.60;2.72;;;;;;;15.33;66.17;100078.94;1788969;80;20956;-80
2021/07/23 00:57:27;;;;;;;4.70;1.60;;;;;;;15.31;66.44;100077.44;1764431;78;21831;-80
2021/07/23 00:59:53;;;;;;;3.92;1.50;;;;;;;15.27;66.67;100080.92;1823158;77;21418;-80
2021/07/23 01:02:20;;;;;;;2.40;1.50;;;;;;;15.24;66.89;100083.88;1812650;77;20979;-80
2021/07/23 01:04:49;;;;;;;2.20;1.70;;;;;;;15.20;67.01;100075.06;1820750;78;20937;-81
2021/07/23 01:07:16;;;;;;;4.87;1.70;;;;;;;15.16;67.00;100082.04;1785312;77;21411;-80
2021/07/23 01:09:43;;;;;;;3.45;1.80;;;;;;;15.13;67.23;100074.84;1795928;77;21717;-80
2021/07/23 01:12:11;;;;;;;2.72;1.67;;;;;;;15.13;67.19;100076.18;1789254;77;21040;-81
2021/07/23 01:14:39;;;;;;;2.35;1.67;;;;;;;15.13;67.21;100085.49;1789310;78;20952;-81
2021/07/23 01:17:08;;;;;;;3.62;1.87;;;;;;;15.12;67.14;100080.67;1788472;80;21411;-80
2021/07/23 01:19:50;;;;;;;5.65;2.10;;;;;;;15.10;67.12;100084.48;1788570;80;20995;-80
2021/07/23 01:22:17;;;;;;;2.65;1.50;;;;;;;15.09;67.35;100080.16;1812283;78;22320;-80
2021/07/23 01:24:44;;;;;;;5.15;1.82;;;;;;;15.08;67.43;100074.51;1787369;78;21475;-80
2021/07/23 01:27:13;;;;;;;2.85;2.20;;;;;;;15.04;67.43;100083.77;1815897;78;21059;-80
2021/07/23 01:29:46;;;;;;;2.90;1.70;;;;;;;15.02;67.44;100087.09;1786814;78;20984;-80
2021/07/23 01:32:13;;;;;;;2.65;1.87;;;;;;;14.99;67.66;100078.11;1758964;78;21521;-79
2021/07/23 01:34:40;;;;;;;4.60;2.00;;;;;;;14.96;67.79;100079.73;1797184;78;22166;-78
2021/07/23 01:37:07;;;;;;;1.92;1.62;;;;;;;14.91;67.48;100080.22;1786992;79;21016;-80
2021/07/23 01:39:34;;;;;;;3.10;1.92;;;;;;;14.92;67.52;100085.04;1803371;79;21087;-80
2021/07/23 01:42:01;;;;;;;5.42;2.00;;;;;;;14.92;67.54;100086.38;1786821;79;21118;-80
2021/07/23 01:44:29;;;;;;;5.42;2.00;;;;;;;14.91;67.31;100084.20;1806406;79;20928;-79
2021/07/23 01:46:56;;;;;;;5.10;1.92;;;;;;;14.91;67.30;100079.38;1787241;79;22183;-80
2021/07/23 01:49:24;;;;;;;3.22;1.90;;;;;;;14.92;67.34;100082.38;1807427;79;20980;-79
2021/07/23 01:51:50;;;;;;;3.75;1.82;;;;;;;14.87;67.51;100075.72;1805418;79;20980;-79
2021/07/23 01:54:35;;;;;;;4.03;1.77;;;;;;;14.82;67.53;100075.34;1789898;79;21023;-80
2021/07/23 01:57:04;;;;;;;3.17;1.70;;;;;;;14.78;67.95;100083.30;1807597;79;20940;-80
2021/07/23 01:59:31;;;;;;;7.12;1.90;;;;;;;14.74;68.02;100082.42;1792071;78;21809;-80
2021/07/23 02:01:57;;;;;;;3.80;1.92;;;;;;;14.72;68.13;100080.42;1780380;79;20953;-80
2021/07/23 02:04:29;;;;;;;5.53;1.80;;;;;;;14.70;68.17;100081.08;1795665;79;21392;-80
2021/07/23 02:06:55;;;;;;;4.80;1.95;;;;;;;14.66;68.25;100081.03;1796132;78;21423;-80
2021/07/23 02:09:22;;;;;;;5.33;1.62;;;;;;;14.60;68.45;100077.19;1775961;80;20992;-80
2021/07/23 02:11:58;;;;;;;3.83;1.80;;;;;;;14.60;68.60;100078.52;1775997;80;20924;-80
2021/07/23 02:14:29;;;;;;;3.20;1.77;;;;;;;14.58;68.73;100078.67;1786957;78;21456;-80
2021/07/23 02:16:57;;;;;;;5.17;2.10;;;;;;;14.55;68.81;100082.95;1805053;79;21038;-80
2021/07/23 02:19:23;;;;;;;5.03;1.82;;;;;;;14.55;68.74;100082.12;1777054;79;21028;-80
2021/07/23 02:21:52;;;;;;;7.62;2.10;;;;;;;14.55;69.01;100080.79;1776157;79;21400;-80
2021/07/23 02:24:19;;;;;;;4.53;1.90;;;;;;;14.53;68.77;100084.10;1789801;79;22861;-80
2021/07/23 02:26:46;;;;;;;2.95;1.90;;;;;;;14.56;68.77;100086.44;1807162;79;21020;-79
2021/07/23 02:29:12;;;;;;;3.80;2.00;;;;;;;14.53;68.82;100085.44;1799519;79;21012;-80
2021/07/23 02:31:41;;;;;;;6.85;2.00;;;;;;;14.51;68.89;100081.60;1777847;79;21232;-80
2021/07/23 02:34:09;;;;;;;3.40;2.30;;;;;;;14.51;68.93;100085.59;1809880;78;21051;-80
2021/07/23 02:36:37;;;;;;;6.35;2.00;;;;;;;14.51;68.92;100078.11;1805589;77;21502;-79
2021/07/23 02:39:04;;;;;;;3.17;2.08;;;;;;;14.52;68.89;100085.09;1807731;79;21058;-80
2021/07/23 02:41:33;;;;;;;3.40;1.92;;;;;;;14.52;68.96;100084.59;1722214;81;21034;-80
2021/07/23 02:44:00;;;;;;;3.80;1.90;;;;;;;14.52;69.03;100088.59;1759741;80;20973;-80
2021/07/23 02:46:28;;;;;;;7.17;1.80;;;;;;;14.52;68.97;100081.94;1749442;80;20970;-80
2021/07/23 02:48:55;;;;;;;3.87;1.82;;;;;;;14.55;68.81;100083.45;1732294;82;22255;-81
2021/07/23 02:51:24;;;;;;;4.35;1.70;;;;;;;14.57;68.78;100082.80;1789348;80;20992;-80
2021/07/23 02:53:52;;;;;;;3.15;1.65;;;;;;;14.61;68.76;100085.50;1766273;79;21027;-79
2021/07/23 02:56:19;;;;;;;3.98;1.98;;;;;;;14.63;68.67;100078.20;1822933;77;21510;-80
2021/07/23 02:58:47;;;;;;;2.70;1.77;;;;;;;14.66;68.86;100085.85;1816040;77;21402;-80
2021/07/23 03:01:13;;;;;;;3.80;1.85;;;;;;;14.66;68.73;100085.02;1788921;78;22185;-80
2021/07/23 03:03:41;;;;;;;3.52;1.70;;;;;;;14.70;68.67;100089.89;1788679;80;21372;-79
2021/07/23 03:06:08;;;;;;;4.12;2.00;;;;;;;14.73;68.46;100086.08;1791053;77;20999;-79
2021/07/23 03:08:37;;;;;;;4.53;1.60;;;;;;;14.77;68.38;100087.45;1791527;78;20980;-79
2021/07/23 03:11:05;;;;;;;6.12;2.15;;;;;;;14.82;68.31;100085.14;1820733;78;20987;-80
2021/07/23 03:13:37;;;;;;;4.97;1.77;;;;;;;14.87;68.21;100086.36;1798333;77;21479;-80
2021/07/23 03:16:15;;;;;;;2.60;1.85;;;;;;;14.92;67.96;100079.72;1789209;78;20939;-79
2021/07/23 03:18:39;;;;;;;3.55;1.80;;;;;;;15.00;67.75;100082.44;1809619;77;20983;-80
2021/07/23 03:21:06;;;;;;;3.62;1.65;;;;;;;15.04;67.62;100077.95;1786594;78;21634;-79
2021/07/23 03:23:32;;;;;;;4.65;1.85;;;;;;;15.08;67.46;100079.83;1830491;77;20996;-80
2021/07/23 03:25:59;;;;;;;2.83;1.70;;;;;;;15.13;67.03;100081.00;1803571;77;22266;-78
2021/07/23 03:28:42;;;;;;;4.05;1.75;;;;;;;15.19;66.83;100083.54;1816764;77;20945;-78
2021/07/23 03:31:15;;;;;;;3.52;1.70;;;;;;;15.25;66.63;100090.90;1807585;78;20964;-78
2021/07/23 03:33:43;;;;;;;2.85;1.52;;;;;;;15.30;66.21;100089.91;1825871;77;21020;-76
2021/07/23 03:36:10;;;;;;;5.78;1.50;;;;;;;15.37;65.84;100096.27;1797976;78;20937;-78
2021/07/23 03:38:38;;;;;;;5.12;1.50;;;;;;;15.44;65.61;100094.65;1792109;79;22394;-78
2021/07/23 03:41:05;;;;;;;2.27;1.50;;;;;;;15.51;65.35;100090.00;1812027;79;21498;-77
2021/07/23 03:43:32;;;;;;;2.58;1.30;;;;;;;15.60;65.18;100093.89;1798073;77;20948;-77
2021/07/23 03:46:00;;;;;;;2.85;1.52;;;;;;;15.66;65.07;100097.25;1804764;77;21123;-78
2021/07/23 03:48:28;;;;;;;5.42;1.22;;;;;;;15.73;64.93;100090.80;1782216;79;21054;-78
2021/07/23 03:50:55;;;;;;;2.10;1.30;;;;;;;15.78;64.56;100091.13;1805178;77;22800;-77
2021/07/23 03:53:25;;;;;;;4.62;1.75;;;;;;;15.84;64.22;100091.81;1802802;77;21083;-79
2021/07/23 03:56:05;;;;;;;2.58;1.67;;;;;;;15.92;63.99;100098.50;1780855;80;21387;-79
2021/07/23 03:58:37;;;;;;;3.95;1.60;;;;;;;15.98;63.88;100098.33;1819233;77;21040;-81
2021/07/23 04:01:05;;;;;;;2.35;1.40;;;;;;;16.03;63.78;100091.53;1813809;77;21008;-76
2021/07/23 04:03:33;;;;;;;3.62;1.70;;;;;;;16.09;63.94;100095.34;1820212;77;22741;-77
2021/07/23 04:06:01;;;;;;;4.22;1.52;;;;;;;16.13;64.04;100092.70;1790395;79;20937;-77
2021/07/23 04:08:28;;;;;;;2.27;1.50;;;;;;;16.20;63.67;100094.20;1789131;79;20988;-77
2021/07/23 04:10:57;;;;;;;4.03;1.40;;;;;;;16.27;63.59;100099.20;1781060;80;21444;-76
2021/07/23 04:13:26;;;;;;;3.92;1.62;;;;;;;16.31;63.21;100095.23;1806729;77;21066;-79
2021/07/23 04:15:52;;;;;;;2.95;1.40;;;;;;;16.37;63.39;100089.22;1813262;79;22165;-76
2021/07/23 04:18:19;;;;;;;2.60;1.50;;;;;;;16.41;63.43;100085.74;1804063;77;21419;-76
2021/07/23 04:20:49;;;;;;;4.75;1.60;;;;;;;16.47;63.16;100090.39;1802601;77;20949;-76
2021/07/23 04:23:17;;;;;;;2.65;1.50;;;;;;;16.53;62.65;100088.40;1792843;77;21008;-74
2021/07/23 04:25:44;;;;;;;4.42;1.70;;;;;;;16.60;62.61;100094.23;1802374;79;21044;-76
2021/07/23 04:28:10;;;;;;;3.77;1.70;;;;;;;16.67;62.73;100089.55;1800263;77;21780;-76
2021/07/23 04:30:39;;;;;;;3.25;1.50;;;;;;;16.72;62.40;100091.25;1781045;79;20936;-80
2021/07/23 04:33:07;;;;;;;3.52;1.70;;;;;;;16.76;62.42;100092.57;1730304;77;21490;-77
2021/07/23 04:35:35;;;;;;;5.17;1.90;;;;;;;16.81;62.43;100088.91;1792184;77;20992;-79
2021/07/23 04:38:02;;;;;;;2.80;1.45;;;;;;;16.90;62.52;100091.06;1779666;78;20941;-80
2021/07/23 04:40:39;;;;;;;3.60;1.70;;;;;;;16.96;62.32;100090.38;1768442;79;22754;-80
2021/07/23 04:43:08;;;;;;;4.10;1.65;;;;;;;17.02;62.33;100084.37;1792386;78;20965;-79
2021/07/23 04:45:34;;;;;;;7.35;1.90;;;;;;;17.09;62.49;100092.86;1824528;78;20976;-80
2021/07/23 04:48:04;;;;;;;2.87;1.75;;;;;;;17.15;62.59;100094.83;1834765;78;21043;-80
2021/07/23 04:50:33;;;;;;;4.37;1.90;;;;;;;17.20;62.77;100090.83;1784985;77;21071;-79
2021/07/23 04:53:17;;;;;;;3.70;1.90;;;;;;;17.28;63.05;100092.98;1774568;80;21822;-79
2021/07/23 04:56:02;;;;;;;4.35;1.90;;;;;;;17.39;63.43;100089.92;1737687;80;20980;-80
2021/07/23 04:58:31;;;;;;;3.20;1.90;;;;;;;17.50;63.45;100089.22;1758859;79;21015;-79
2021/07/23 05:00:57;;;;;;;3.80;2.42;;;;;;;17.58;63.54;100082.51;1766604;79;21466;-80
2021/07/23 05:03:26;;;;;;;3.67;2.05;;;;;;;17.63;63.50;100088.14;1766802;81;21425;-79
2021/07/23 05:05:53;;;;;;;5.15;2.17;;;;;;;17.67;63.77;100091.64;1772406;79;21805;-80
2021/07/23 05:08:20;;;;;;;4.97;2.20;;;;;;;17.72;63.83;100083.12;1803889;79;21359;-80
2021/07/23 05:10:47;;;;;;;4.50;2.35;;;;;;;17.78;63.95;100081.61;1799939;78;21419;-81
2021/07/23 05:13:15;;;;;;;5.47;1.85;;;;;;;17.79;64.12;100086.77;1775024;80;21059;-80
2021/07/23 05:15:42;;;;;;;4.55;2.10;;;;;;;17.85;64.14;100085.22;1774920;80;20996;-79
2021/07/23 05:18:09;;;;;;;3.27;2.10;;;;;;;17.89;64.25;100086.04;1774768;80;21793;-80
2021/07/23 05:20:36;;;;;;;3.70;1.70;;;;;;;17.93;64.24;100086.51;1774699;80;21263;-78
2021/07/23 05:23:03;;;;;;;4.37;2.10;;;;;;;18.00;64.40;100085.63;1786880;79;21031;-80
2021/07/23 05:25:33;;;;;;;7.22;2.20;;;;;;;18.08;64.11;100088.77;1790770;79;21008;-81
2021/07/23 05:28:00;;;;;;;5.80;2.37;;;;;;;18.15;64.14;100081.70;1806896;79;21561;-81
2021/07/23 05:30:27;;;;;;;5.20;2.45;;;;;;;18.24;64.10;100081.15;1777454;79;21779;-79
2021/07/23 05:32:54;;;;;;;6.60;2.20;;;;;;;18.31;64.04;100082.91;1774985;80;21012;-81
2021/07/23 05:35:20;;;;;;;3.37;2.00;;;;;;;18.38;63.60;100083.03;1787859;78;21036;-78
2021/07/23 05:37:46;;;;;;;5.20;2.35;;;;;;;18.43;63.33;100079.33;1782195;79;21091;-78
2021/07/23 05:40:16;;;;;;;4.37;2.30;;;;;;;18.49;63.10;100081.27;1777743;79;21027;-77
2021/07/23 05:42:43;;;;;;;4.10;2.40;;;;;;;18.55;62.73;100083.23;1805326;78;21831;-75
2021/07/23 05:45:10;;;;;;;2.92;2.00;;;;;;;18.60;62.63;100084.84;1803410;79;21533;-78
2021/07/23 05:47:37;;;;;;;3.70;2.00;;;;;;;18.67;62.43;100086.33;1804819;79;20990;-75
2021/07/23 05:50:04;;;;;;;3.05;2.02;;;;;;;18.76;62.25;100091.09;1797869;78;21105;-77
2021/07/23 05:52:30;;;;;;;2.55;2.00;;;;;;;18.86;61.82;100096.52;1806843;79;20989;-77
2021/07/23 05:54:57;;;;;;;4.17;1.90;;;;;;;18.94;61.40;100087.58;1806045;78;22186;-74
2021/07/23 05:57:23;;;;;;;3.15;1.77;;;;;;;19.01;61.23;100095.20;1786103;79;21059;-75
2021/07/23 05:59:50;;;;;;;5.62;2.00;;;;;;;19.10;60.21;100090.57;1801974;79;21015;-78
2021/07/23 06:02:16;;;;;;;3.83;1.90;;;;;;;19.20;60.25;100089.79;1806834;79;21012;-79
2021/07/23 06:04:43;;;;;;;5.80;2.00;;;;;;;19.31;60.44;100095.22;1804593;79;21580;-78
2021/07/23 06:07:09;;;;;;;3.47;1.67;;;;;;;19.40;59.92;100093.59;1778054;78;21820;-77
2021/07/23 06:09:36;;;;;;;4.90;1.77;;;;;;;19.51;59.46;100093.63;1774771;80;21502;-78
2021/07/23 06:12:02;;;;;;;4.12;1.90;;;;;;;19.60;58.72;100095.22;1775014;80;21015;-77
2021/07/23 06:14:30;;;;;;;7.17;2.15;;;;;;;19.71;58.35;100093.40;1774628;80;21510;-76
2021/07/23 06:16:58;;;;;;;3.55;1.60;;;;;;;19.80;58.07;100092.78;1808022;78;21067;-76
2021/07/23 06:19:25;;;;;;;4.33;1.67;;;;;;;19.87;56.86;100092.33;1774600;79;21801;-77
2021/07/23 06:21:51;;;;;;;2.50;1.80;;;;;;;19.89;56.23;100094.33;1776177;79;21278;-80
2021/07/23 06:24:18;;;;;;;5.50;1.60;;;;;;;20.01;56.23;100098.17;1792716;78;21051;-76
2021/07/23 06:26:44;;;;;;;2.87;1.50;;;;;;;20.08;54.74;100092.06;1803726;79;21051;-76
2021/07/23 06:29:11;;;;;;;4.97;1.82;;;;;;;20.10;54.34;100090.84;1753910;80;21031;-79
2021/07/23 06:31:38;;;;;;;6.97;2.02;;;;;;;20.11;54.64;100096.52;1777612;79;21758;-77
2021/07/23 06:34:04;;;;;;;4.60;2.05;;;;;;;20.15;54.08;100092.94;1785196;79;21028;-76
2021/07/23 06:36:33;;;;;;;7.15;2.08;;;;;;;20.20;54.69;100095.89;1782437;78;21020;-75
2021/07/23 06:38:59;;;;;;;5.37;1.60;;;;;;;20.28;54.82;100089.06;1776654;79;21011;-76
2021/07/23 06:41:26;;;;;;;3.70;1.52;;;;;;;20.36;54.93;100093.45;1774591;79;21023;-79
2021/07/23 06:43:52;;;;;;;4.42;1.70;;;;;;;20.41;54.49;100090.52;1786836;79;21805;-78
2021/07/23 06:46:19;;;;;;;5.03;1.98;;;;;;;20.46;54.70;100091.30;1790355;78;21027;-82
2021/07/23 06:48:46;;;;;;;4.75;2.10;;;;;;;20.51;54.69;100084.35;1774615;80;21011;-78
2021/07/23 06:51:13;;;;;;;8.58;2.08;;;;;;;20.57;54.55;100078.73;1785111;78;21506;-75
2021/07/23 06:53:40;;;;;;;7.30;2.00;;;;;;;20.68;54.87;100081.40;1806392;79;21024;-77
2021/07/23 06:56:07;;;;;;;5.97;2.02;;;;;;;20.77;53.83;100079.72;1806012;79;21730;-76
2021/07/23 06:58:34;;;;;;;5.17;1.80;;;;;;;20.78;52.02;100082.72;1806383;78;21035;-76
2021/07/23 07:01:07;;;;;;;8.33;2.45;;;;;;;20.82;52.43;100084.48;1786536;78;21496;-76
2021/07/23 07:03:34;;;;;;;6.33;1.80;;;;;;;20.91;52.62;100078.46;1775041;80;21075;-78
2021/07/23 07:06:04;;;;;;;3.80;1.62;;;;;;;20.95;52.75;100081.92;1774540;79;21032;-77
2021/07/23 07:08:32;;;;;;;4.95;1.70;;;;;;;21.00;52.59;100080.80;1781202;79;21053;-78
2021/07/23 07:11:00;;;;;;;3.52;1.55;;;;;;;21.08;52.98;100079.30;1787729;78;21067;-78
2021/07/23 07:13:27;;;;;;;6.92;1.67;;;;;;;21.23;52.95;100078.34;1796991;79;20992;-79
2021/07/23 07:15:53;;;;;;;5.87;1.65;;;;;;;21.38;52.76;100071.03;1778543;79;21073;-79
2021/07/23 07:18:20;;;;;;;8.10;1.57;;;;;;;21.48;51.50;100077.37;1789497;79;20925;-78
2021/07/23 07:20:47;;;;;;;4.83;1.67;;;;;;;21.52;51.36;100072.77;1806191;78;21803;-78
2021/07/23 07:23:13;;;;;;;5.28;1.57;;;;;;;21.57;51.22;100066.26;1788879;79;20961;-77
2021/07/23 07:25:40;;;;;;;4.25;1.50;;;;;;;21.62;51.09;100067.84;1777652;79;20940;-78
2021/07/23 07:28:06;;;;;;;5.35;1.75;;;;;;;21.71;50.19;100069.81;1778656;79;21464;-76
2021/07/23 07:30:33;;;;;;;8.30;1.85;;;;;;;21.81;50.24;100072.97;1782291;79;21590;-77
2021/07/23 07:32:59;;;;;;;7.67;1.92;;;;;;;21.89;49.97;100068.73;1785339;79;22791;-77
2021/07/23 07:35:26;;;;;;;9.55;2.00;;;;;;;22.01;50.26;100066.30;1776225;80;21501;-76
2021/07/23 07:37:52;;;;;;;5.78;1.90;;;;;;;22.10;49.43;100067.80;1788904;80;21347;-81
2021/07/23 07:40:19;;;;;;;2.42;1.40;;;;;;;22.09;49.93;100064.77;1789216;78;21567;-76
2021/07/23 07:42:46;;;;;;;4.97;1.50;;;;;;;22.17;50.82;100062.41;1790357;77;21430;-77
2021/07/23 07:45:13;;;;;;;8.68;2.00;;;;;;;22.24;49.09;100067.30;1788714;79;22219;-77
2021/07/23 07:47:39;;;;;;;6.47;1.60;;;;;;;22.28;49.13;100069.88;1817947;77;20993;-78
2021/07/23 07:50:09;;;;;;;3.72;1.40;;;;;;;22.28;47.19;100069.88;1806420;77;21007;-76
2021/07/23 07:52:35;;;;;;;8.18;1.87;;;;;;;22.27;46.90;100071.73;1813377;77;21450;-82
2021/07/23 07:55:02;;;;;;;8.60;1.85;;;;;;;22.26;47.31;100063.36;1818920;78;20968;-80
2021/07/23 07:57:28;;;;;;;3.83;1.22;;;;;;;22.31;47.56;100061.94;1819824;78;21819;-80
2021/07/23 07:59:57;;;;;;;2.85;1.20;;;;;;;22.36;46.85;100067.51;1821032;78;21016;-81
2021/07/23 08:02:23;;;;;;;9.35;1.65;;;;;;;22.40;46.11;100059.35;1821023;78;20925;-81
2021/07/23 08:04:51;;;;;;;7.25;2.12;;;;;;;22.41;44.51;100066.39;1805770;77;21050;-77
2021/07/23 08:07:28;;;;;;;6.72;1.62;;;;;;;22.41;44.26;100059.66;1839915;77;20922;-80
2021/07/23 08:10:01;;;;;;;6.05;1.50;;;;;;;22.43;44.91;100066.48;1804198;78;21803;-77
2021/07/23 08:12:26;;;;;;;10.30;2.08;;;;;;;22.51;44.65;100066.80;1781690;78;20967;-78
2021/07/23 08:14:53;;;;;;;4.90;1.52;;;;;;;22.62;43.50;100055.41;1781661;80;20933;-76
2021/07/23 08:17:20;;;;;;;5.62;1.40;;;;;;;22.65;42.56;100059.02;1759704;80;21036;-79
2021/07/23 08:19:46;;;;;;;3.80;1.12;;;;;;;22.60;42.74;100057.48;1722810;81;20967;-82
2021/07/23 08:22:13;;;;;;;162.53;45.80;;;;;;;22.60;43.24;100058.00;1753822;81;21819;-80
2021/07/23 08:24:39;;;;;;;7.15;2.98;;;;;;;22.67;43.30;100054.77;1768716;79;20894;-78
2021/07/23 08:27:06;;;;;;;16.93;5.45;;;;;;;22.78;44.28;100053.64;1812140;78;21495;-77
2021/07/23 08:29:32;;;;;;;4.20;1.45;;;;;;;22.96;44.36;100048.14;1821147;78;21576;-78
2021/07/23 08:32:09;;;;;;;3.55;1.20;;;;;;;23.10;42.94;100047.91;1803717;78;21418;-79
2021/07/23 08:34:35;;;;;;;5.60;1.20;;;;;;;23.21;43.49;100055.03;1759382;81;21788;-79
2021/07/23 08:37:03;;;;;;;2.75;1.20;;;;;;;23.32;43.47;100048.98;1751751;81;20932;-77
2021/07/23 08:39:30;;;;;;;2.87;1.00;;;;;;;23.39;41.84;100052.48;1750778;81;21427;-77
2021/07/23 08:41:56;;;;;;;4.17;1.00;;;;;;;23.42;41.65;100050.18;1750684;82;21684;-77
2021/07/23 08:44:29;;;;;;;3.52;1.00;;;;;;;23.51;41.86;100055.34;1750843;81;20937;-77
2021/07/23 08:46:53;;;;;;;2.75;1.15;;;;;;;23.56;40.31;100052.84;1750339;81;22170;-78
2021/07/23 08:49:20;;;;;;;13.72;1.55;;;;;;;23.58;40.92;100052.09;1761272;79;20940;-77
2021/07/23 08:51:52;;;;;;;22.15;1.87;;;;;;;23.59;41.01;100052.44;1773510;80;20978;-80
2021/07/23 08:54:19;;;;;;;3.83;1.40;;;;;;;23.66;41.19;100053.23;1775207;80;20991;-79
2021/07/23 08:56:47;;;;;;;2.17;1.15;;;;;;;23.74;39.95;100054.34;1775148;80;21132;-79
2021/07/23 08:59:14;;;;;;;4.28;1.70;;;;;;;23.76;39.10;100056.82;1780287;79;22218;-80
2021/07/23 09:02:04;;;;;;;2.40;1.20;;;;;;;23.74;38.15;100052.14;1781653;80;21336;-80
2021/07/23 09:04:39;;;;;;;4.47;1.42;;;;;;;23.77;39.52;100054.42;1781753;80;21031;-80
2021/07/23 09:07:22;;;;;;;7.17;1.10;;;;;;;23.88;38.54;100042.95;1760050;80;21058;-79
2021/07/23 09:10:05;;;;;;;4.00;1.20;;;;;;;23.95;37.88;100052.66;1750975;82;21019;-79
2021/07/23 09:12:46;;;;;;;;;;;;;;;23.98;37.67;100042.77;1753689;82;21782;-80
2021/07/23 09:15:22;;;;;;;2.67;1.05;;;;;;;24.06;38.53;100048.44;1750762;82;20505;-79
2021/07/23 09:17:49;;;;;;;2.52;1.22;;;;;;;24.11;37.85;100046.42;1751063;82;21423;-78
2021/07/23 09:20:15;;;;;;;7.30;1.22;;;;;;;24.09;39.08;100043.95;1750860;81;21629;-79
2021/07/23 09:22:53;;;;;;;2.17;1.10;;;;;;;24.13;39.17;100041.66;1752031;80;21031;-79
2021/07/23 09:25:43;;;;;;;6.85;1.50;;;;;;;24.19;38.69;100036.72;1750795;81;21783;-77
2021/07/23 09:28:29;;;;;;;3.00;1.45;;;;;;;24.25;39.18;100038.55;1755073;79;20976;-81
2021/07/23 09:31:02;;;;;;;8.20;1.30;;;;;;;24.42;39.60;100035.66;1759857;80;21451;-77
2021/07/23 09:33:35;;;;;;;6.47;1.50;;;;;;;24.62;40.33;100037.36;1777257;80;20945;-79
2021/07/23 09:36:05;;;;;;;2.90;1.00;;;;;;;24.83;39.93;100047.22;1760346;80;21000;-79
2021/07/23 09:38:38;;;;;;;4.75;1.20;;;;;;;25.03;38.72;100040.29;1681930;84;21797;-82
2021/07/23 09:41:08;;;;;;;5.00;1.30;;;;;;;25.09;39.17;100038.05;1694076;83;25687;-82
2021/07/23 09:43:39;;;;;;;3.00;1.20;;;;;;;25.19;38.16;100038.02;1689087;83;21033;-81
2021/07/23 09:46:21;;;;;;;4.75;1.05;;;;;;;25.28;38.44;100026.69;1695288;83;21042;-77
2021/07/23 09:48:48;;;;;;;4.05;1.25;;;;;;;25.43;38.97;100039.83;1750146;80;21036;-77
2021/07/23 09:51:14;;;;;;;2.17;1.10;;;;;;;25.47;37.60;100040.19;1751414;80;21774;-77
2021/07/23 09:53:41;;;;;;;6.80;1.30;;;;;;;25.51;37.82;100031.94;1774465;80;20852;-79
2021/07/23 09:56:10;;;;;;;5.03;1.10;;;;;;;25.65;38.35;100034.75;1770721;80;21426;-78
2021/07/23 09:58:40;;;;;;;5.50;1.35;;;;;;;25.71;37.80;100031.70;1772586;80;21406;-77
2021/07/23 10:01:14;;;;;;;24.60;1.98;;;;;;;25.86;37.90;100029.39;1756524;79;21487;-77
2021/07/23 10:03:47;;;;;;;5.67;1.30;;;;;;;25.95;37.80;100023.95;1751544;79;22541;-79
2021/07/23 10:06:37;;;;;;;7.42;1.30;;;;;;;26.08;37.78;100014.30;1736575;80;21447;-80
2021/07/23 10:09:10;;;;;;;5.10;1.47;;;;;;;26.19;37.55;100027.03;1767509;80;21036;-78
2021/07/23 10:11:41;;;;;;;5.80;1.35;;;;;;;26.28;36.72;100015.87;1784584;79;20981;-76
2021/07/23 10:14:10;;;;;;;3.72;1.30;;;;;;;26.44;37.59;100019.25;1766242;78;21008;-78
2021/07/23 10:16:39;;;;;;;6.92;1.37;;;;;;;26.58;36.48;100020.69;1753180;80;22750;-78
2021/07/23 10:19:07;;;;;;;7.83;1.30;;;;;;;26.67;36.87;100016.58;1767437;79;21001;-78
2021/07/23 10:21:34;;;;;;;7.65;1.35;;;;;;;26.76;36.43;100027.88;1774518;80;21531;-78
2021/07/23 10:24:01;;;;;;;4.72;1.30;;;;;;;26.78;36.20;100027.11;1768126;79;21356;-78
2021/07/23 10:26:33;;;;;;;4.95;1.02;;;;;;;26.78;37.74;100017.09;1775039;79;21005;-81
2021/07/23 10:28:59;;;;;;;4.47;1.12;;;;;;;26.90;36.25;100021.67;1774176;80;21845;-81
2021/07/23 10:31:32;;;;;;;5.05;1.30;;;;;;;26.88;36.31;100018.38;1773590;80;21490;-81
2021/07/23 10:34:01;;;;;;;3.55;1.30;;;;;;;26.84;35.25;100013.98;1749849;80;21442;-82
2021/07/23 10:36:33;;;;;;;3.00;0.98;;;;;;;26.72;34.31;100013.96;1699146;81;21091;-81
2021/07/23 10:39:19;;;;;;;2.70;1.10;;;;;;;26.57;35.29;100020.40;1744873;80;20983;-80
2021/07/23 10:41:52;;;;;;;3.60;1.17;;;;;;;26.57;35.45;100013.63;1737200;80;21822;-79
2021/07/23 10:44:35;;;;;;;5.03;1.30;;;;;;;26.63;36.40;100015.91;1750964;82;21399;-81
2021/07/23 10:47:04;;;;;;;2.33;1.15;;;;;;;26.78;35.19;100019.80;1750809;81;20908;-81
2021/07/23 10:49:39;;;;;;;5.12;1.30;;;;;;;26.70;35.57;100016.09;1764597;79;21357;-81
2021/07/23 10:52:05;;;;;;;3.27;1.10;;;;;;;26.77;35.67;100015.45;1775277;79;21486;-83
2021/07/23 10:54:39;;;;;;;4.00;1.15;;;;;;;26.88;35.87;100012.97;1780627;78;22826;-81
2021/07/23 10:57:11;;;;;;;2.52;1.22;;;;;;;26.96;34.66;100004.47;1738835;79;20985;-82
2021/07/23 10:59:51;;;;;;;3.30;1.40;;;;;;;27.06;35.98;100008.79;1758717;80;21058;-81
2021/07/23 11:02:26;;;;;;;6.28;1.60;;;;;;;27.21;35.88;100002.31;1773090;80;21084;-82
2021/07/23 11:05:07;;;;;;;3.77;1.30;;;;;;;27.33;35.29;100005.02;1768422;80;21388;-82
2021/07/23 11:07:33;;;;;;;2.27;1.17;;;;;;;27.43;34.09;100003.04;1745548;80;21865;-80
2021/07/23 11:10:00;;;;;;;8.95;1.10;;;;;;;27.49;34.67;100000.70;1767107;80;20877;-81
2021/07/23 11:12:31;;;;;;;3.65;1.07;;;;;;;27.67;35.39;99997.83;1762275;80;20988;-82
2021/07/23 11:15:02;;;;;;;3.55;1.40;;;;;;;27.87;34.48;99991.41;1773115;79;21356;-81
2021/07/23 11:17:28;;;;;;;5.92;1.10;;;;;;;28.00;34.29;99990.30;1778014;79;21062;-82
2021/07/23 11:20:01;;;;;;;4.20;1.10;;;;;;;28.20;34.69;99984.38;1780584;80;21797;-82
2021/07/23 11:22:32;;;;;;;4.12;1.12;;;;;;;28.43;33.87;99986.94;1755605;80;21015;-83
2021/07/23 11:25:05;;;;;;;1.35;1.00;;;;;;;28.55;33.29;99981.41;1761862;79;21437;-81
2021/07/23 11:27:34;;;;;;;5.37;1.17;;;;;;;28.69;34.31;99988.69;1776085;79;21035;-82
2021/07/23 11:30:22;;;;;;;1.80;0.95;;;;;;;28.83;33.53;99993.22;1779920;79;21015;-82
2021/07/23 11:32:55;;;;;;;12.88;1.60;;;;;;;28.76;31.78;99988.80;1775922;79;21849;-80